AFL1041 URSS-UUEE
Flight info
| Callsign | AFL1041 |
|---|---|
| Flight time | N/A |
| Altitude | 37000 |
| Route | IRGID A944 GUBOR G487 ERSAR DCT BEMES DCT VULFI DCT TUVGI DCT EVZUN DCT ZIZAR DCT VAZLU DCT UZZID DCT NOKLI N72 WGD G481 OBABI T619 UMRAL P163 GOLRI L736 OLOPI |
| Aircraft | A20N/M-SDE2E3FGHIRWXY/LB1 |
Departure
| Time | N/A |
|---|---|
| Airport | Sochi International Airport (URSS) |
Arrival
| Time | 2026-05-01 09:54 |
|---|---|
| Airport | Sheremetyevo International Airport (UUEE) |
| Time | Latitude | Longitude | Altitude | Speed | Heading |
|---|---|---|---|---|---|
| 2026-05-01 07:23 | 44.02540 | 44.03693 | 37039 ft | 493 kts | 97° |
| 2026-05-01 07:24 | 44.01858 | 44.17933 | 37036 ft | 493 kts | 96° |
| 2026-05-01 07:24 | 44.01393 | 44.27396 | 37034 ft | 494 kts | 96° |
| 2026-05-01 07:25 | 44.00922 | 44.36871 | 37032 ft | 494 kts | 96° |
| 2026-05-01 07:25 | 44.00445 | 44.46315 | 37034 ft | 494 kts | 96° |
| 2026-05-01 07:26 | 43.99954 | 44.55830 | 37037 ft | 493 kts | 96° |
| 2026-05-01 07:26 | 43.99463 | 44.65241 | 37035 ft | 493 kts | 97° |
| 2026-05-01 07:27 | 43.98961 | 44.74714 | 37035 ft | 492 kts | 97° |
| 2026-05-01 07:27 | 43.98452 | 44.84140 | 37031 ft | 492 kts | 97° |
| 2026-05-01 07:28 | 43.97934 | 44.93574 | 37039 ft | 492 kts | 97° |
| 2026-05-01 07:28 | 43.97412 | 45.02986 | 37040 ft | 492 kts | 97° |
| 2026-05-01 07:29 | 43.96880 | 45.12415 | 37027 ft | 492 kts | 97° |
| 2026-05-01 07:29 | 43.96337 | 45.21899 | 37028 ft | 493 kts | 97° |
| 2026-05-01 07:30 | 43.95789 | 45.31334 | 37032 ft | 492 kts | 97° |
| 2026-05-01 07:30 | 43.95235 | 45.40740 | 37032 ft | 492 kts | 97° |
| 2026-05-01 07:31 | 43.94671 | 45.50200 | 37021 ft | 491 kts | 97° |
| 2026-05-01 07:32 | 43.93235 | 45.73689 | 37030 ft | 491 kts | 98° |
| 2026-05-01 07:33 | 43.93306 | 45.87814 | 37032 ft | 494 kts | 82° |
| 2026-05-01 07:33 | 43.96271 | 46.01424 | 37034 ft | 495 kts | 64° |
| 2026-05-01 07:34 | 44.00867 | 46.14245 | 37027 ft | 495 kts | 62° |
| 2026-05-01 07:35 | 44.03907 | 46.22744 | 37039 ft | 495 kts | 63° |
| 2026-05-01 07:35 | 44.06942 | 46.31353 | 37043 ft | 495 kts | 63° |
| 2026-05-01 07:36 | 44.09932 | 46.39887 | 37044 ft | 496 kts | 63° |
| 2026-05-01 07:36 | 44.12938 | 46.48496 | 37058 ft | 497 kts | 63° |
| 2026-05-01 07:37 | 44.17439 | 46.61445 | 37055 ft | 496 kts | 63° |
| 2026-05-01 07:37 | 44.20438 | 46.70101 | 37062 ft | 496 kts | 64° |
| 2026-05-01 07:38 | 44.23417 | 46.78732 | 37063 ft | 497 kts | 63° |
| 2026-05-01 07:39 | 44.27864 | 46.91663 | 37066 ft | 497 kts | 64° |
| 2026-05-01 07:39 | 44.32320 | 47.04689 | 37076 ft | 497 kts | 63° |
| 2026-05-01 07:40 | 44.35288 | 47.13395 | 37082 ft | 497 kts | 63° |
| 2026-05-01 07:40 | 44.38209 | 47.21993 | 37081 ft | 497 kts | 63° |
| 2026-05-01 07:41 | 44.41151 | 47.30680 | 37087 ft | 498 kts | 63° |
| 2026-05-01 07:42 | 44.45556 | 47.43750 | 37084 ft | 498 kts | 63° |
| 2026-05-01 07:42 | 44.49368 | 47.51715 | 37083 ft | 493 kts | 41° |
| 2026-05-01 07:42 | 44.51899 | 47.54783 | 37091 ft | 487 kts | 30° |
| 2026-05-01 07:43 | 44.54784 | 47.57174 | 37094 ft | 479 kts | 19° |
| 2026-05-01 07:43 | 44.57876 | 47.58797 | 37101 ft | 471 kts | 8° |
| 2026-05-01 07:43 | 44.64239 | 47.59792 | 37103 ft | 457 kts | 352° |
| 2026-05-01 07:44 | 44.76907 | 47.59496 | 37103 ft | 458 kts | 352° |
| 2026-05-01 07:45 | 44.83274 | 47.59410 | 37111 ft | 459 kts | 352° |
| 2026-05-01 07:45 | 44.89634 | 47.59345 | 37108 ft | 458 kts | 352° |
| 2026-05-01 07:46 | 44.95999 | 47.59287 | 37109 ft | 458 kts | 352° |
| 2026-05-01 07:47 | 45.05512 | 47.59201 | 37115 ft | 457 kts | 352° |
| 2026-05-01 07:47 | 45.11851 | 47.59146 | 37117 ft | 457 kts | 352° |
| 2026-05-01 07:48 | 45.21413 | 47.59061 | 37115 ft | 457 kts | 352° |
| 2026-05-01 07:48 | 45.27739 | 47.59004 | 37112 ft | 458 kts | 352° |
| 2026-05-01 07:49 | 45.37318 | 47.58918 | 37125 ft | 459 kts | 352° |
| 2026-05-01 07:50 | 45.43670 | 47.58863 | 37116 ft | 459 kts | 351° |
| 2026-05-01 07:50 | 45.53211 | 47.58778 | 37113 ft | 458 kts | 352° |
| 2026-05-01 07:51 | 45.59587 | 47.58719 | 37112 ft | 459 kts | 352° |
| 2026-05-01 07:52 | 45.69111 | 47.58632 | 37114 ft | 459 kts | 351° |
| 2026-05-01 07:52 | 45.75501 | 47.58575 | 37110 ft | 460 kts | 351° |
| 2026-05-01 07:53 | 45.85095 | 47.58487 | 37117 ft | 460 kts | 351° |
| 2026-05-01 07:53 | 45.91495 | 47.58430 | 37115 ft | 460 kts | 351° |
| 2026-05-01 07:55 | 46.07458 | 47.58279 | 37111 ft | 461 kts | 351° |
| 2026-05-01 07:56 | 46.22836 | 47.55143 | 37116 ft | 433 kts | 325° |
| 2026-05-01 07:56 | 46.27707 | 47.50473 | 37120 ft | 417 kts | 310° |
| 2026-05-01 07:57 | 46.29745 | 47.47520 | 37127 ft | 410 kts | 303° |
| 2026-05-01 07:58 | 46.36019 | 47.34072 | 37135 ft | 404 kts | 296° |
| 2026-05-01 07:59 | 46.42044 | 47.20454 | 37146 ft | 404 kts | 296° |
| 2026-05-01 08:00 | 46.51121 | 46.99854 | 37117 ft | 406 kts | 296° |
| 2026-05-01 08:01 | 46.57143 | 46.86105 | 37142 ft | 405 kts | 296° |
| 2026-05-01 08:02 | 46.61657 | 46.75755 | 37134 ft | 405 kts | 296° |
| 2026-05-01 08:03 | 46.66168 | 46.65375 | 37146 ft | 405 kts | 296° |
| 2026-05-01 08:03 | 46.70658 | 46.55005 | 37149 ft | 406 kts | 296° |
| 2026-05-01 08:04 | 46.76662 | 46.41067 | 37146 ft | 407 kts | 296° |
| 2026-05-01 08:05 | 46.81147 | 46.30606 | 37148 ft | 406 kts | 295° |
| 2026-05-01 08:06 | 46.85611 | 46.20158 | 37144 ft | 405 kts | 295° |
| 2026-05-01 08:07 | 46.92430 | 46.06963 | 37152 ft | 419 kts | 308° |
| 2026-05-01 08:07 | 46.96983 | 46.01520 | 37154 ft | 430 kts | 317° |
| 2026-05-01 08:08 | 46.99529 | 45.99206 | 37149 ft | 436 kts | 322° |
| 2026-05-01 08:09 | 47.10538 | 45.91364 | 37139 ft | 441 kts | 326° |
| 2026-05-01 08:09 | 47.16040 | 45.87520 | 37142 ft | 440 kts | 326° |
| 2026-05-01 08:10 | 47.21577 | 45.83635 | 37286 ft | 439 kts | 326° |
| 2026-05-01 08:10 | 47.27039 | 45.79788 | 37181 ft | 437 kts | 326° |
| 2026-05-01 08:11 | 47.37983 | 45.72046 | 37124 ft | 438 kts | 326° |
| 2026-05-01 08:12 | 47.46211 | 45.66202 | 37139 ft | 439 kts | 326° |
| 2026-05-01 08:13 | 47.54451 | 45.60329 | 37135 ft | 439 kts | 326° |
| 2026-05-01 08:13 | 47.62533 | 45.54561 | 37145 ft | 423 kts | 326° |
| 2026-05-01 08:14 | 47.67804 | 45.50769 | 37141 ft | 423 kts | 326° |
| 2026-05-01 08:14 | 47.73086 | 45.46966 | 37143 ft | 423 kts | 326° |
| 2026-05-01 08:15 | 47.80555 | 45.40393 | 37124 ft | 413 kts | 317° |
| 2026-05-01 08:16 | 47.85019 | 45.35088 | 37151 ft | 408 kts | 311° |
| 2026-05-01 08:16 | 47.89221 | 45.29417 | 37134 ft | 408 kts | 310° |
| 2026-05-01 08:17 | 47.93412 | 45.23722 | 37144 ft | 408 kts | 310° |
| 2026-05-01 08:17 | 47.97599 | 45.18030 | 37141 ft | 409 kts | 310° |
| 2026-05-01 08:18 | 48.01875 | 45.12397 | 37135 ft | 412 kts | 314° |
| 2026-05-01 08:19 | 48.11304 | 45.02535 | 37133 ft | 417 kts | 319° |
| 2026-05-01 08:19 | 48.16119 | 44.97708 | 37145 ft | 417 kts | 319° |
| 2026-05-01 08:20 | 48.20934 | 44.92863 | 37147 ft | 417 kts | 319° |
| 2026-05-01 08:20 | 48.25723 | 44.88027 | 37154 ft | 417 kts | 319° |
| 2026-05-01 08:21 | 48.30530 | 44.83163 | 37143 ft | 417 kts | 319° |
| 2026-05-01 08:21 | 48.35321 | 44.78302 | 37150 ft | 417 kts | 319° |
| 2026-05-01 08:22 | 48.40085 | 44.73456 | 37130 ft | 416 kts | 319° |
| 2026-05-01 08:22 | 48.44884 | 44.68561 | 37140 ft | 417 kts | 319° |
| 2026-05-01 08:23 | 48.49675 | 44.63665 | 37136 ft | 417 kts | 319° |
| 2026-05-01 08:23 | 48.54450 | 44.58776 | 37131 ft | 418 kts | 319° |
| 2026-05-01 08:24 | 48.59242 | 44.53855 | 37120 ft | 418 kts | 319° |
| 2026-05-01 08:24 | 48.64051 | 44.48899 | 37127 ft | 418 kts | 319° |
| 2026-05-01 08:25 | 48.68836 | 44.43955 | 37130 ft | 419 kts | 319° |
| 2026-05-01 08:25 | 48.73638 | 44.39003 | 37122 ft | 420 kts | 320° |
| 2026-05-01 08:26 | 48.78711 | 44.34558 | 37122 ft | 425 kts | 326° |
| 2026-05-01 08:26 | 48.84113 | 44.30956 | 37137 ft | 431 kts | 332° |
| 2026-05-01 08:27 | 48.89719 | 44.27779 | 37131 ft | 430 kts | 332° |
| 2026-05-01 08:27 | 48.95339 | 44.24614 | 37124 ft | 431 kts | 332° |
| 2026-05-01 08:28 | 49.00964 | 44.21426 | 37126 ft | 432 kts | 332° |
| 2026-05-01 08:28 | 49.06579 | 44.18233 | 37111 ft | 431 kts | 332° |
| 2026-05-01 08:29 | 49.12150 | 44.15053 | 37117 ft | 432 kts | 332° |
| 2026-05-01 08:29 | 49.17795 | 44.11825 | 37112 ft | 431 kts | 332° |
| 2026-05-01 08:30 | 49.23401 | 44.08609 | 37109 ft | 431 kts | 333° |
| 2026-05-01 08:30 | 49.29004 | 44.05388 | 37119 ft | 432 kts | 333° |
| 2026-05-01 08:31 | 49.34595 | 44.02165 | 37114 ft | 433 kts | 333° |
| 2026-05-01 08:31 | 49.40236 | 43.98902 | 37106 ft | 433 kts | 333° |
| 2026-05-01 08:32 | 49.45863 | 43.95644 | 37114 ft | 433 kts | 333° |
| 2026-05-01 08:32 | 49.51419 | 43.92245 | 37114 ft | 430 kts | 329° |
| 2026-05-01 08:33 | 49.56702 | 43.88102 | 37123 ft | 427 kts | 326° |
| 2026-05-01 08:33 | 49.61899 | 43.83736 | 37116 ft | 428 kts | 326° |
| 2026-05-01 08:34 | 49.67108 | 43.79349 | 37123 ft | 428 kts | 326° |
| 2026-05-01 08:34 | 49.72321 | 43.74961 | 37139 ft | 428 kts | 326° |
| 2026-05-01 08:35 | 49.77558 | 43.70540 | 37130 ft | 429 kts | 326° |
| 2026-05-01 08:35 | 49.82776 | 43.66125 | 37114 ft | 429 kts | 326° |
| 2026-05-01 08:36 | 49.87997 | 43.61698 | 37138 ft | 430 kts | 326° |
| 2026-05-01 08:36 | 49.93221 | 43.57262 | 37124 ft | 430 kts | 326° |
| 2026-05-01 08:37 | 49.98432 | 43.52818 | 37117 ft | 430 kts | 327° |
| 2026-05-01 08:37 | 50.03646 | 43.48367 | 37119 ft | 430 kts | 327° |
| 2026-05-01 08:38 | 50.08872 | 43.43893 | 37125 ft | 430 kts | 327° |
| 2026-05-01 08:38 | 50.14099 | 43.39405 | 37121 ft | 431 kts | 327° |
| 2026-05-01 08:39 | 50.19357 | 43.34875 | 37122 ft | 432 kts | 326° |
| 2026-05-01 08:39 | 50.24619 | 43.30339 | 37124 ft | 432 kts | 326° |
| 2026-05-01 08:40 | 50.32475 | 43.23537 | 37125 ft | 433 kts | 326° |
| 2026-05-01 08:40 | 50.37707 | 43.18994 | 37123 ft | 432 kts | 326° |
| 2026-05-01 08:41 | 50.42966 | 43.14416 | 37128 ft | 432 kts | 326° |
| 2026-05-01 08:41 | 50.48191 | 43.09855 | 37129 ft | 432 kts | 327° |
| 2026-05-01 08:42 | 50.53428 | 43.05270 | 37136 ft | 432 kts | 326° |
| 2026-05-01 08:42 | 50.58652 | 43.00683 | 37131 ft | 433 kts | 327° |
| 2026-05-01 08:43 | 50.63907 | 42.96057 | 37133 ft | 433 kts | 327° |
| 2026-05-01 08:43 | 50.69236 | 42.91635 | 37128 ft | 437 kts | 331° |
| 2026-05-01 08:44 | 50.74882 | 42.88065 | 37132 ft | 439 kts | 336° |
| 2026-05-01 08:44 | 50.80619 | 42.84880 | 37124 ft | 439 kts | 337° |
| 2026-05-01 08:45 | 50.86358 | 42.81700 | 37131 ft | 439 kts | 337° |
| 2026-05-01 08:45 | 50.92076 | 42.78507 | 37120 ft | 439 kts | 337° |
| 2026-05-01 08:46 | 50.97839 | 42.75274 | 37164 ft | 441 kts | 337° |
| 2026-05-01 08:46 | 51.00719 | 42.73656 | 37349 ft | 441 kts | 337° |
| 2026-05-01 08:46 | 51.03588 | 42.72040 | 37533 ft | 440 kts | 338° |
| 2026-05-01 08:47 | 51.06446 | 42.70429 | 37704 ft | 439 kts | 338° |
| 2026-05-01 08:47 | 51.09340 | 42.68795 | 37831 ft | 440 kts | 338° |
| 2026-05-01 08:47 | 51.12197 | 42.67181 | 37963 ft | 441 kts | 338° |
| 2026-05-01 08:47 | 51.15091 | 42.65543 | 38100 ft | 441 kts | 338° |
| 2026-05-01 08:48 | 51.20856 | 42.62277 | 38118 ft | 442 kts | 338° |
| 2026-05-01 08:48 | 51.26612 | 42.59005 | 38121 ft | 442 kts | 338° |
| 2026-05-01 08:49 | 51.32404 | 42.55703 | 38119 ft | 442 kts | 338° |
| 2026-05-01 08:49 | 51.38182 | 42.52400 | 38125 ft | 442 kts | 338° |
| 2026-05-01 08:50 | 51.43957 | 42.49089 | 38123 ft | 442 kts | 338° |
| 2026-05-01 08:50 | 51.49705 | 42.45786 | 38120 ft | 442 kts | 338° |
| 2026-05-01 08:51 | 51.55484 | 42.42455 | 38119 ft | 442 kts | 338° |
| 2026-05-01 08:51 | 51.61252 | 42.39124 | 38118 ft | 443 kts | 338° |
| 2026-05-01 08:52 | 51.67001 | 42.35791 | 38127 ft | 443 kts | 338° |
| 2026-05-01 08:52 | 51.72776 | 42.32436 | 38128 ft | 443 kts | 338° |
| 2026-05-01 08:53 | 51.78587 | 42.29050 | 38124 ft | 443 kts | 338° |
| 2026-05-01 08:53 | 51.84328 | 42.25696 | 38120 ft | 442 kts | 338° |
| 2026-05-01 08:54 | 51.90115 | 42.22306 | 38123 ft | 442 kts | 338° |
| 2026-05-01 08:54 | 51.95875 | 42.18920 | 38117 ft | 441 kts | 338° |
| 2026-05-01 08:55 | 52.01623 | 42.15533 | 38118 ft | 441 kts | 338° |
| 2026-05-01 08:55 | 52.07373 | 42.12135 | 38111 ft | 442 kts | 338° |
| 2026-05-01 08:56 | 52.13109 | 42.08631 | 38116 ft | 442 kts | 336° |
| 2026-05-01 08:56 | 52.18826 | 42.04893 | 38113 ft | 442 kts | 336° |
| 2026-05-01 08:57 | 52.24512 | 42.01164 | 38125 ft | 442 kts | 336° |
| 2026-05-01 08:57 | 52.30186 | 41.97445 | 38119 ft | 442 kts | 336° |
| 2026-05-01 08:58 | 52.35874 | 41.93713 | 38117 ft | 441 kts | 336° |
| 2026-05-01 08:58 | 52.41582 | 41.89960 | 38117 ft | 441 kts | 336° |
| 2026-05-01 08:59 | 52.47224 | 41.86239 | 38129 ft | 441 kts | 336° |
| 2026-05-01 08:59 | 52.52914 | 41.82475 | 38129 ft | 442 kts | 336° |
| 2026-05-01 09:00 | 52.58602 | 41.78704 | 38129 ft | 441 kts | 337° |
| 2026-05-01 09:00 | 52.64249 | 41.74949 | 38138 ft | 441 kts | 337° |
| 2026-05-01 09:01 | 52.69924 | 41.71164 | 38141 ft | 440 kts | 337° |
| 2026-05-01 09:01 | 52.75603 | 41.67366 | 38136 ft | 440 kts | 337° |
| 2026-05-01 09:02 | 52.81261 | 41.63574 | 38141 ft | 441 kts | 337° |
| 2026-05-01 09:02 | 52.86903 | 41.59781 | 38152 ft | 441 kts | 337° |
| 2026-05-01 09:03 | 52.92583 | 41.55951 | 38151 ft | 441 kts | 337° |
| 2026-05-01 09:03 | 52.98282 | 41.52096 | 38155 ft | 441 kts | 337° |
| 2026-05-01 09:04 | 53.03938 | 41.48260 | 38155 ft | 441 kts | 337° |
| 2026-05-01 09:04 | 53.09583 | 41.44420 | 38157 ft | 441 kts | 337° |
| 2026-05-01 09:05 | 53.15259 | 41.40549 | 38154 ft | 441 kts | 337° |
| 2026-05-01 09:05 | 53.20911 | 41.36681 | 38157 ft | 440 kts | 337° |
| 2026-05-01 09:06 | 53.26546 | 41.32816 | 38157 ft | 440 kts | 336° |
| 2026-05-01 09:06 | 53.32203 | 41.28923 | 38158 ft | 439 kts | 336° |
| 2026-05-01 09:07 | 53.37799 | 41.25060 | 38151 ft | 438 kts | 337° |
| 2026-05-01 09:07 | 53.43435 | 41.21159 | 38144 ft | 437 kts | 337° |
| 2026-05-01 09:08 | 53.49010 | 41.17291 | 38139 ft | 437 kts | 337° |
| 2026-05-01 09:08 | 53.54614 | 41.13388 | 38136 ft | 438 kts | 337° |
| 2026-05-01 09:09 | 53.60227 | 41.09465 | 38133 ft | 437 kts | 337° |
| 2026-05-01 09:09 | 53.65601 | 41.04737 | 38140 ft | 437 kts | 323° |
| 2026-05-01 09:10 | 53.69908 | 40.97634 | 38138 ft | 438 kts | 307° |
| 2026-05-01 09:10 | 53.72930 | 40.88737 | 38148 ft | 439 kts | 295° |
| 2026-05-01 09:11 | 53.75396 | 40.79348 | 38145 ft | 439 kts | 294° |
| 2026-05-01 09:11 | 53.77838 | 40.69982 | 38145 ft | 438 kts | 295° |
| 2026-05-01 09:12 | 53.80300 | 40.60567 | 38146 ft | 438 kts | 295° |
| 2026-05-01 09:12 | 53.82756 | 40.51166 | 38150 ft | 438 kts | 295° |
| 2026-05-01 09:13 | 53.85192 | 40.41811 | 38156 ft | 439 kts | 295° |
| 2026-05-01 09:13 | 53.87648 | 40.32342 | 38163 ft | 440 kts | 294° |
| 2026-05-01 09:14 | 53.90109 | 40.22819 | 38172 ft | 441 kts | 294° |
| 2026-05-01 09:14 | 53.92554 | 40.13316 | 38176 ft | 441 kts | 294° |
| 2026-05-01 09:15 | 53.94986 | 40.03824 | 38184 ft | 440 kts | 294° |
| 2026-05-01 09:15 | 53.97396 | 39.94374 | 38187 ft | 439 kts | 295° |
| 2026-05-01 09:16 | 53.99802 | 39.84904 | 38188 ft | 440 kts | 295° |
| 2026-05-01 09:17 | 54.03426 | 39.70565 | 38188 ft | 441 kts | 295° |
| 2026-05-01 09:17 | 54.07023 | 39.56233 | 38187 ft | 441 kts | 295° |
| 2026-05-01 09:18 | 54.10588 | 39.41937 | 38144 ft | 437 kts | 295° |
| 2026-05-01 09:19 | 54.12958 | 39.32383 | 36820 ft | 448 kts | 294° |
| 2026-05-01 09:19 | 54.14182 | 39.27429 | 36077 ft | 453 kts | 295° |
| 2026-05-01 09:19 | 54.15395 | 39.22510 | 35489 ft | 454 kts | 295° |
| 2026-05-01 09:20 | 54.17819 | 39.12641 | 34388 ft | 451 kts | 295° |
| 2026-05-01 09:20 | 54.20221 | 39.02811 | 33189 ft | 452 kts | 295° |
| 2026-05-01 09:21 | 54.22768 | 38.93101 | 32053 ft | 449 kts | 307° |
| 2026-05-01 09:21 | 54.24800 | 38.89108 | 31443 ft | 440 kts | 324° |
| 2026-05-01 09:21 | 54.29972 | 38.84137 | 30800 ft | 419 kts | 337° |
| 2026-05-01 09:22 | 54.35095 | 38.79796 | 30269 ft | 402 kts | 338° |
| 2026-05-01 09:22 | 54.39796 | 38.74800 | 29854 ft | 399 kts | 329° |
| 2026-05-01 09:23 | 54.42031 | 38.72034 | 29653 ft | 399 kts | 329° |
| 2026-05-01 09:23 | 54.46514 | 38.66496 | 29259 ft | 395 kts | 329° |
| 2026-05-01 09:24 | 54.50951 | 38.61068 | 28850 ft | 392 kts | 329° |
| 2026-05-01 09:24 | 54.53168 | 38.58366 | 28644 ft | 391 kts | 329° |
| 2026-05-01 09:24 | 54.57601 | 38.52958 | 28228 ft | 387 kts | 330° |
| 2026-05-01 09:25 | 54.61950 | 38.47647 | 27813 ft | 383 kts | 330° |
| 2026-05-01 09:25 | 54.66271 | 38.42357 | 27380 ft | 380 kts | 330° |
| 2026-05-01 09:26 | 54.68415 | 38.39731 | 27142 ft | 378 kts | 330° |
| 2026-05-01 09:26 | 54.72689 | 38.34482 | 26650 ft | 375 kts | 329° |
| 2026-05-01 09:26 | 54.74809 | 38.31873 | 26404 ft | 374 kts | 329° |
| 2026-05-01 09:27 | 54.79031 | 38.26664 | 25900 ft | 371 kts | 329° |
| 2026-05-01 09:27 | 54.81121 | 38.24085 | 25646 ft | 369 kts | 329° |
| 2026-05-01 09:27 | 54.83205 | 38.21506 | 25389 ft | 368 kts | 329° |
| 2026-05-01 09:28 | 54.85270 | 38.18949 | 25132 ft | 367 kts | 329° |
| 2026-05-01 09:28 | 54.87339 | 38.16381 | 24873 ft | 365 kts | 329° |
| 2026-05-01 09:28 | 54.89400 | 38.13819 | 24614 ft | 363 kts | 329° |
| 2026-05-01 09:28 | 54.91443 | 38.11279 | 24343 ft | 362 kts | 329° |
| 2026-05-01 09:29 | 54.95497 | 38.06227 | 23796 ft | 358 kts | 329° |
| 2026-05-01 09:29 | 54.97506 | 38.03720 | 23530 ft | 356 kts | 329° |
| 2026-05-01 09:30 | 55.01515 | 37.98706 | 22978 ft | 353 kts | 329° |
| 2026-05-01 09:30 | 55.03514 | 37.96198 | 22699 ft | 352 kts | 330° |
| 2026-05-01 09:30 | 55.07451 | 37.91259 | 22162 ft | 349 kts | 330° |
| 2026-05-01 09:31 | 55.09428 | 37.88773 | 21887 ft | 348 kts | 329° |
| 2026-05-01 09:31 | 55.11380 | 37.86314 | 21618 ft | 346 kts | 330° |
| 2026-05-01 09:31 | 55.15244 | 37.81436 | 21073 ft | 342 kts | 330° |
| 2026-05-01 09:32 | 55.17150 | 37.79029 | 20803 ft | 341 kts | 330° |
| 2026-05-01 09:32 | 55.20990 | 37.74168 | 20260 ft | 338 kts | 330° |
| 2026-05-01 09:32 | 55.22882 | 37.71770 | 19988 ft | 336 kts | 330° |
| 2026-05-01 09:33 | 55.24750 | 37.69400 | 19731 ft | 336 kts | 330° |
| 2026-05-01 09:33 | 55.26652 | 37.66981 | 19458 ft | 335 kts | 330° |
| 2026-05-01 09:33 | 55.30391 | 37.62217 | 18916 ft | 332 kts | 329° |
| 2026-05-01 09:34 | 55.32242 | 37.59852 | 18649 ft | 331 kts | 330° |
| 2026-05-01 09:34 | 55.34072 | 37.57515 | 18392 ft | 330 kts | 329° |
| 2026-05-01 09:34 | 55.37757 | 37.52801 | 17864 ft | 327 kts | 329° |
| 2026-05-01 09:35 | 55.39593 | 37.50447 | 17598 ft | 325 kts | 329° |
| 2026-05-01 09:35 | 55.43231 | 37.45770 | 17189 ft | 323 kts | 329° |
| 2026-05-01 09:35 | 55.45049 | 37.43430 | 17187 ft | 324 kts | 329° |
| 2026-05-01 09:36 | 55.46864 | 37.41092 | 17180 ft | 324 kts | 329° |
| 2026-05-01 09:36 | 55.48635 | 37.38802 | 17173 ft | 311 kts | 329° |
| 2026-05-01 09:36 | 55.50403 | 37.36858 | 17168 ft | 293 kts | 342° |
| 2026-05-01 09:36 | 55.52317 | 37.35865 | 17063 ft | 287 kts | 356° |
| 2026-05-01 09:37 | 55.54303 | 37.35684 | 16822 ft | 284 kts | 3° |
| 2026-05-01 09:37 | 55.58215 | 37.35679 | 16379 ft | 282 kts | 3° |
| 2026-05-01 09:37 | 55.60175 | 37.35675 | 16130 ft | 281 kts | 3° |
| 2026-05-01 09:38 | 55.64046 | 37.35650 | 15459 ft | 278 kts | 2° |
| 2026-05-01 09:38 | 55.65966 | 37.35634 | 15105 ft | 277 kts | 2° |
| 2026-05-01 09:38 | 55.67883 | 37.35614 | 14750 ft | 275 kts | 2° |
| 2026-05-01 09:39 | 55.71685 | 37.35574 | 14048 ft | 271 kts | 2° |
| 2026-05-01 09:39 | 55.73568 | 37.35477 | 13701 ft | 270 kts | 360° |
| 2026-05-01 09:39 | 55.75419 | 37.35287 | 13353 ft | 269 kts | 359° |
| 2026-05-01 09:40 | 55.77282 | 37.35086 | 13016 ft | 267 kts | 359° |
| 2026-05-01 09:40 | 55.80968 | 37.34686 | 12329 ft | 264 kts | 358° |
| 2026-05-01 09:40 | 55.82784 | 37.34491 | 11994 ft | 263 kts | 358° |
| 2026-05-01 09:41 | 55.84615 | 37.34291 | 11907 ft | 268 kts | 358° |
| 2026-05-01 09:41 | 55.88395 | 37.33873 | 11716 ft | 273 kts | 358° |
| 2026-05-01 09:41 | 55.90274 | 37.33666 | 11326 ft | 272 kts | 358° |
| 2026-05-01 09:42 | 55.92141 | 37.33461 | 10953 ft | 270 kts | 357° |
| 2026-05-01 09:42 | 55.94022 | 37.33253 | 10586 ft | 268 kts | 357° |
| 2026-05-01 09:42 | 55.97678 | 37.33214 | 9980 ft | 259 kts | 14° |
| 2026-05-01 09:43 | 56.00704 | 37.36047 | 9661 ft | 241 kts | 32° |
| 2026-05-01 09:43 | 56.02077 | 37.37692 | 9322 ft | 240 kts | 32° |
| 2026-05-01 09:43 | 56.03462 | 37.39353 | 8986 ft | 239 kts | 32° |
| 2026-05-01 09:44 | 56.06228 | 37.42650 | 8279 ft | 237 kts | 31° |
| 2026-05-01 09:44 | 56.07594 | 37.44273 | 7897 ft | 238 kts | 31° |
| 2026-05-01 09:44 | 56.08989 | 37.45931 | 7515 ft | 239 kts | 31° |
| 2026-05-01 09:45 | 56.10360 | 37.47559 | 7194 ft | 237 kts | 32° |
| 2026-05-01 09:45 | 56.13086 | 37.50802 | 6458 ft | 238 kts | 31° |
| 2026-05-01 09:45 | 56.14473 | 37.52452 | 6114 ft | 237 kts | 32° |
| 2026-05-01 09:46 | 56.15836 | 37.54076 | 5771 ft | 237 kts | 32° |
| 2026-05-01 09:46 | 56.17193 | 37.55735 | 5487 ft | 234 kts | 37° |
| 2026-05-01 09:46 | 56.18125 | 37.58086 | 5173 ft | 236 kts | 72° |
| 2026-05-01 09:46 | 56.18138 | 37.60980 | 4909 ft | 236 kts | 106° |
| 2026-05-01 09:47 | 56.17298 | 37.63464 | 4933 ft | 237 kts | 132° |
| 2026-05-01 09:47 | 56.16120 | 37.65572 | 4958 ft | 237 kts | 135° |
| 2026-05-01 09:47 | 56.14929 | 37.67657 | 4972 ft | 238 kts | 135° |
| 2026-05-01 09:47 | 56.13759 | 37.69738 | 4975 ft | 236 kts | 134° |
| 2026-05-01 09:48 | 56.12624 | 37.71785 | 4927 ft | 230 kts | 134° |
| 2026-05-01 09:48 | 56.11503 | 37.73828 | 4578 ft | 233 kts | 134° |
| 2026-05-01 09:48 | 56.10360 | 37.75912 | 4245 ft | 233 kts | 135° |
| 2026-05-01 09:48 | 56.09061 | 37.77573 | 3880 ft | 235 kts | 164° |
| 2026-05-01 09:49 | 56.07485 | 37.77485 | 3827 ft | 222 kts | 199° |
| 2026-05-01 09:49 | 56.06067 | 37.76485 | 3841 ft | 221 kts | 204° |
| 2026-05-01 09:49 | 56.04660 | 37.75446 | 3668 ft | 216 kts | 202° |
| 2026-05-01 09:49 | 56.03298 | 37.74526 | 3582 ft | 205 kts | 201° |
| 2026-05-01 09:50 | 56.02061 | 37.73359 | 3445 ft | 200 kts | 229° |
| 2026-05-01 09:50 | 56.01394 | 37.71246 | 3349 ft | 197 kts | 255° |
| 2026-05-01 09:50 | 56.01100 | 37.68838 | 3101 ft | 197 kts | 261° |
| 2026-05-01 09:50 | 56.00853 | 37.66490 | 3016 ft | 188 kts | 260° |
| 2026-05-01 09:51 | 56.00570 | 37.64299 | 2954 ft | 174 kts | 258° |
| 2026-05-01 09:51 | 56.00272 | 37.62270 | 2705 ft | 163 kts | 257° |
| 2026-05-01 09:51 | 55.99984 | 37.60380 | 2467 ft | 154 kts | 256° |
| 2026-05-01 09:51 | 55.99711 | 37.58601 | 2267 ft | 148 kts | 257° |
| 2026-05-01 09:52 | 55.99443 | 37.56832 | 2109 ft | 145 kts | 257° |
| 2026-05-01 09:52 | 55.99189 | 37.55162 | 1899 ft | 136 kts | 257° |
| 2026-05-01 09:52 | 55.98943 | 37.53534 | 1724 ft | 134 kts | 257° |
| 2026-05-01 09:52 | 55.98705 | 37.51946 | 1541 ft | 131 kts | 257° |
| 2026-05-01 09:53 | 55.98465 | 37.50350 | 1366 ft | 134 kts | 257° |
| 2026-05-01 09:53 | 55.98226 | 37.48760 | 1168 ft | 132 kts | 257° |
| 2026-05-01 09:53 | 55.97977 | 37.47174 | 1010 ft | 133 kts | 256° |
| 2026-05-01 09:53 | 55.97750 | 37.45594 | 827 ft | 130 kts | 256° |
| 2026-05-01 09:54 | 55.97523 | 37.44046 | 650 ft | 127 kts | 256° |
| 2026-05-01 09:54 | 55.97326 | 37.42706 | 637 ft | 88 kts | 255° |
| 2026-05-01 09:54 | 55.97211 | 37.41943 | 637 ft | 39 kts | 256° |
| 2026-05-01 09:54 | 55.97160 | 37.41575 | 637 ft | 27 kts | 257° |
| 2026-05-01 09:55 | 55.97157 | 37.41361 | 637 ft | 14 kts | 326° |
| 2026-05-01 09:55 | 55.97256 | 37.41304 | 637 ft | 15 kts | 346° |
| 2026-05-01 09:55 | 55.97360 | 37.41254 | 637 ft | 15 kts | 346° |
| 2026-05-01 09:55 | 55.97466 | 37.41204 | 637 ft | 16 kts | 346° |
| 2026-05-01 09:56 | 55.97573 | 37.41152 | 637 ft | 12 kts | 346° |
| 2026-05-01 09:56 | 55.97628 | 37.41210 | 637 ft | 11 kts | 73° |
| 2026-05-01 09:56 | 55.97649 | 37.41349 | 637 ft | 12 kts | 75° |
| 2026-05-01 09:56 | 55.97672 | 37.41504 | 637 ft | 13 kts | 77° |
| 2026-05-01 09:57 | 55.97705 | 37.41565 | 637 ft | 7 kts | 0° |
| 2026-05-01 09:57 | 55.97758 | 37.41544 | 637 ft | 8 kts | 346° |
| 2026-05-01 09:57 | 55.97821 | 37.41514 | 637 ft | 10 kts | 345° |
| 2026-05-01 09:57 | 55.97892 | 37.41478 | 637 ft | 11 kts | 344° |
| 2026-05-01 09:58 | 55.97971 | 37.41438 | 637 ft | 12 kts | 347° |
| 2026-05-01 09:58 | 55.98022 | 37.41418 | 637 ft | 4 kts | 349° |
| 2026-05-01 09:58 | 55.98052 | 37.41438 | 637 ft | 5 kts | 54° |
| 2026-05-01 09:58 | 55.98064 | 37.41497 | 637 ft | 3 kts | 76° |
| 2026-05-01 09:59 | 55.98069 | 37.41538 | 637 ft | 0 kts | 77° |
| 2026-05-01 09:59 | 55.98069 | 37.41539 | 637 ft | 0 kts | 77° |